createdAt,value
2018-07-15T00:01:11.710Z,6.30
2018-07-15T00:03:40.419Z,5.83
2018-07-15T00:06:09.114Z,6.00
2018-07-15T00:08:37.802Z,6.37
2018-07-15T00:11:06.544Z,5.90
2018-07-15T00:13:35.306Z,6.20
2018-07-15T00:16:04.153Z,6.53
2018-07-15T00:18:32.893Z,6.10
2018-07-15T00:21:01.636Z,5.80
2018-07-15T00:23:30.359Z,5.83
2018-07-15T00:25:59.038Z,6.07
2018-07-15T00:28:27.725Z,5.93
2018-07-15T00:30:56.372Z,6.03
2018-07-15T00:33:25.197Z,5.90
2018-07-15T00:35:53.981Z,6.13
2018-07-15T00:38:22.730Z,5.97
2018-07-15T00:40:51.426Z,5.60
2018-07-15T00:43:20.175Z,5.23
2018-07-15T00:45:48.840Z,5.60
2018-07-15T00:48:17.534Z,6.20
2018-07-15T00:50:46.241Z,6.00
2018-07-15T00:53:14.953Z,5.80
2018-07-15T00:55:43.590Z,6.07
2018-07-15T00:58:12.294Z,5.70
2018-07-15T01:00:46.168Z,5.63
2018-07-15T01:03:14.939Z,6.03
2018-07-15T01:05:43.583Z,5.80
2018-07-15T01:08:12.253Z,5.70
2018-07-15T01:10:40.910Z,5.30
2018-07-15T01:13:09.658Z,5.60
2018-07-15T01:15:38.338Z,5.53
2018-07-15T01:18:06.990Z,5.47
2018-07-15T01:20:35.825Z,6.07
2018-07-15T01:23:04.545Z,6.67
2018-07-15T01:25:33.220Z,5.90
2018-07-15T01:28:01.899Z,6.23
2018-07-15T01:30:30.618Z,5.47
2018-07-15T01:32:59.271Z,5.93
2018-07-15T01:35:27.932Z,5.80
2018-07-15T01:37:56.695Z,6.37
2018-07-15T01:40:25.332Z,5.83
2018-07-15T01:42:54.026Z,5.90
2018-07-15T01:45:22.769Z,5.90
2018-07-15T01:47:51.467Z,5.50
2018-07-15T01:50:20.553Z,6.40
2018-07-15T01:52:49.183Z,5.90
2018-07-15T01:55:17.844Z,5.90
2018-07-15T01:57:46.540Z,6.07
2018-07-15T02:00:15.245Z,6.37
2018-07-15T02:02:43.918Z,5.93
2018-07-15T02:05:12.588Z,7.47
2018-07-15T02:07:41.258Z,6.20
2018-07-15T02:10:10.031Z,6.37
2018-07-15T02:12:38.692Z,6.97
2018-07-15T02:15:07.426Z,6.67
2018-07-15T02:17:36.064Z,6.43
2018-07-15T02:20:04.865Z,6.77
2018-07-15T02:22:33.537Z,6.73
2018-07-15T02:25:02.300Z,6.30
2018-07-15T02:27:30.986Z,6.70
2018-07-15T02:29:59.681Z,6.30
2018-07-15T02:32:28.385Z,7.13
2018-07-15T02:34:57.015Z,6.63
2018-07-15T02:37:25.679Z,7.20
2018-07-15T02:39:54.361Z,6.97
2018-07-15T02:42:23.034Z,7.07
2018-07-15T02:44:51.729Z,6.97
2018-07-15T02:47:20.435Z,7.73
2018-07-15T02:49:49.148Z,7.43
2018-07-15T02:52:17.841Z,8.87
2018-07-15T02:54:46.554Z,8.70
2018-07-15T02:57:15.227Z,7.57
2018-07-15T02:59:43.944Z,8.60
2018-07-15T03:02:12.651Z,8.77
2018-07-15T03:04:41.391Z,8.70
2018-07-15T03:07:10.067Z,8.30
2018-07-15T03:09:38.787Z,8.10
2018-07-15T03:12:07.561Z,8.23
2018-07-15T03:14:36.246Z,8.27
2018-07-15T03:17:05.000Z,9.10
2018-07-15T03:19:33.670Z,9.30
2018-07-15T03:22:02.418Z,9.33
2018-07-15T03:24:31.150Z,9.50
2018-07-15T03:26:59.876Z,9.03
2018-07-15T03:29:28.570Z,9.80
2018-07-15T03:31:57.308Z,9.53
2018-07-15T03:34:26.073Z,10.20
2018-07-15T03:36:54.814Z,10.40
2018-07-15T03:39:23.548Z,10.40
2018-07-15T03:41:52.256Z,10.07
2018-07-15T03:44:20.974Z,9.43
2018-07-15T03:46:49.803Z,9.90
2018-07-15T03:49:18.499Z,10.50
2018-07-15T03:51:47.438Z,9.83
2018-07-15T03:54:16.190Z,10.20
2018-07-15T03:56:44.858Z,9.80
2018-07-15T03:59:13.550Z,10.60
2018-07-15T04:01:42.245Z,11.70
2018-07-15T04:04:10.966Z,12.60
2018-07-15T04:06:39.671Z,12.33
2018-07-15T04:09:08.381Z,12.00
2018-07-15T04:11:37.511Z,12.47
2018-07-15T04:14:06.500Z,11.57
2018-07-15T04:16:35.204Z,11.97
2018-07-15T04:19:03.871Z,12.50
2018-07-15T04:21:32.606Z,12.20
2018-07-15T04:24:01.322Z,14.00
2018-07-15T04:26:30.032Z,11.80
2018-07-15T04:28:58.798Z,12.73
2018-07-15T04:31:27.513Z,11.53
2018-07-15T04:33:56.204Z,11.33
2018-07-15T04:36:24.926Z,12.20
2018-07-15T04:38:53.620Z,11.17
2018-07-15T04:41:22.557Z,11.23
2018-07-15T04:43:51.354Z,10.57
2018-07-15T04:46:20.086Z,11.33
2018-07-15T04:48:48.759Z,10.80
2018-07-15T04:51:17.457Z,10.93
2018-07-15T04:53:46.290Z,11.13
2018-07-15T04:56:14.965Z,10.53
2018-07-15T04:58:43.938Z,10.30
2018-07-15T05:01:12.618Z,10.50
2018-07-15T05:03:41.319Z,9.70
2018-07-15T05:06:10.056Z,10.63
2018-07-15T05:08:38.725Z,10.07
2018-07-15T05:11:07.438Z,10.70
2018-07-15T05:13:36.132Z,10.83
2018-07-15T05:16:05.214Z,10.70
2018-07-15T05:18:33.987Z,10.77
2018-07-15T05:21:02.607Z,10.47
2018-07-15T05:23:31.291Z,12.03
2018-07-15T05:26:00.015Z,10.80
2018-07-15T05:28:28.729Z,10.17
2018-07-15T05:30:57.429Z,9.07
2018-07-15T05:33:26.279Z,8.90
2018-07-15T05:35:54.961Z,7.67
2018-07-15T05:38:23.634Z,7.63
2018-07-15T05:40:52.283Z,7.57
2018-07-15T05:43:21.100Z,7.67
2018-07-15T05:45:49.846Z,6.87
2018-07-15T05:48:18.564Z,7.20
2018-07-15T05:50:47.324Z,6.53
2018-07-15T05:53:16.058Z,6.73
2018-07-15T05:55:44.838Z,7.37
2018-07-15T05:58:13.567Z,6.23
2018-07-15T06:00:42.309Z,6.80
2018-07-15T06:03:10.989Z,6.37
2018-07-15T06:05:39.715Z,6.57
2018-07-15T06:08:08.451Z,7.10
2018-07-15T06:10:37.238Z,6.97
2018-07-15T06:13:05.942Z,6.37
2018-07-15T06:15:34.646Z,6.67
2018-07-15T06:18:03.448Z,6.03
2018-07-15T06:20:32.140Z,6.83
2018-07-15T06:23:00.843Z,6.33
2018-07-15T06:25:29.543Z,6.63
2018-07-15T06:27:58.261Z,6.60
2018-07-15T06:30:26.958Z,6.67
2018-07-15T06:32:55.643Z,6.23
2018-07-15T06:35:24.331Z,6.87
2018-07-15T06:37:53.030Z,6.70
2018-07-15T06:40:21.779Z,6.40
2018-07-15T06:42:50.491Z,7.00
2018-07-15T06:45:19.236Z,6.80
2018-07-15T06:47:47.931Z,6.70
2018-07-15T06:50:16.683Z,5.80
2018-07-15T06:52:45.337Z,5.83
2018-07-15T06:55:14.112Z,5.87
2018-07-15T06:57:42.831Z,6.30
2018-07-15T07:00:11.665Z,6.27
2018-07-15T07:02:40.311Z,5.80
2018-07-15T07:05:09.117Z,6.03
2018-07-15T07:07:37.998Z,5.60
2018-07-15T07:10:06.681Z,6.33
2018-07-15T07:12:35.382Z,5.77
2018-07-15T07:15:04.293Z,6.50
2018-07-15T07:17:33.188Z,5.57
2018-07-15T07:20:02.051Z,5.40
2018-07-15T07:22:30.827Z,5.77
2018-07-15T07:24:59.491Z,5.67
2018-07-15T07:27:30.425Z,5.67
2018-07-15T07:29:59.799Z,5.63
2018-07-15T07:32:28.578Z,5.47
2018-07-15T07:34:57.283Z,5.47
2018-07-15T07:37:26.257Z,5.40
2018-07-15T07:39:54.988Z,5.50
2018-07-15T07:42:23.993Z,5.47
2018-07-15T07:44:52.734Z,5.23
2018-07-15T07:47:21.456Z,6.03
2018-07-15T07:49:50.193Z,5.93
2018-07-15T07:52:18.879Z,5.73
2018-07-15T07:54:47.542Z,5.42
2018-07-15T07:57:16.224Z,5.60
2018-07-15T07:59:44.912Z,4.80
2018-07-15T08:02:13.751Z,4.92
2018-07-15T08:04:42.517Z,4.67
2018-07-15T08:07:11.239Z,5.77
2018-07-15T08:09:39.961Z,4.70
2018-07-15T08:12:09.601Z,4.10
2018-07-15T08:14:38.415Z,4.42
2018-07-15T08:17:07.143Z,4.40
2018-07-15T08:19:35.834Z,3.83
2018-07-15T08:22:04.542Z,3.58
2018-07-15T08:24:33.235Z,3.97
2018-07-15T08:27:01.924Z,3.90
2018-07-15T08:29:30.640Z,3.70
2018-07-15T08:31:59.313Z,4.75
2018-07-15T08:34:27.976Z,3.72
2018-07-15T08:36:56.688Z,4.00
2018-07-15T08:39:25.380Z,3.80
2018-07-15T08:41:54.073Z,3.55
2018-07-15T08:44:22.896Z,4.00
2018-07-15T08:46:51.568Z,3.90
2018-07-15T08:49:20.279Z,4.37
2018-07-15T08:51:48.961Z,4.17
2018-07-15T08:54:17.743Z,3.87
2018-07-15T08:56:46.437Z,4.05
2018-07-15T08:59:15.117Z,3.77
2018-07-15T09:01:43.785Z,3.62
2018-07-15T09:04:12.503Z,3.50
2018-07-15T09:06:41.320Z,3.25
2018-07-15T09:09:10.069Z,3.77
2018-07-15T09:11:38.782Z,4.95
2018-07-15T09:14:07.576Z,3.90
2018-07-15T09:16:36.250Z,3.65
2018-07-15T09:19:04.925Z,3.70
2018-07-15T09:21:33.616Z,4.00
2018-07-15T09:24:02.292Z,4.12
2018-07-15T09:26:31.039Z,4.00
2018-07-15T09:28:59.684Z,3.50
2018-07-15T09:31:28.431Z,3.98
2018-07-15T09:33:57.122Z,4.33
2018-07-15T09:36:25.818Z,3.30
2018-07-15T09:38:54.529Z,3.27
2018-07-15T09:41:23.215Z,3.33
2018-07-15T09:43:51.990Z,3.77
2018-07-15T09:46:21.886Z,3.70
2018-07-15T09:48:50.632Z,3.72
2018-07-15T09:51:19.347Z,3.58
2018-07-15T09:53:48.026Z,3.62
2018-07-15T09:56:16.692Z,3.85
2018-07-15T09:58:45.448Z,3.72
2018-07-15T10:01:14.718Z,3.58
2018-07-15T10:03:43.414Z,3.50
2018-07-15T10:06:12.439Z,4.00
2018-07-15T10:08:41.144Z,3.70
2018-07-15T10:11:09.843Z,4.00
2018-07-15T10:13:38.487Z,4.10
2018-07-15T10:16:07.132Z,3.90
2018-07-15T10:18:35.851Z,3.98
2018-07-15T10:21:04.579Z,3.52
2018-07-15T10:23:33.303Z,3.55
2018-07-15T10:26:01.991Z,3.47
2018-07-15T10:28:30.716Z,3.87
2018-07-15T10:30:59.478Z,3.60
2018-07-15T10:33:28.146Z,3.65
2018-07-15T10:35:56.838Z,3.60
2018-07-15T10:38:25.506Z,3.52
2018-07-15T10:40:54.239Z,3.37
2018-07-15T10:43:22.934Z,3.70
2018-07-15T10:45:51.598Z,3.92
2018-07-15T10:48:20.296Z,4.15
2018-07-15T10:50:48.974Z,4.28
2018-07-15T10:53:17.702Z,4.00
2018-07-15T10:55:46.371Z,4.35
2018-07-15T10:58:15.321Z,4.10
2018-07-15T11:00:44.072Z,3.45
2018-07-15T11:03:12.764Z,3.83
2018-07-15T11:05:41.463Z,3.58
2018-07-15T11:08:10.244Z,4.72
2018-07-15T11:10:38.937Z,3.58
2018-07-15T11:13:07.652Z,3.80
2018-07-15T11:15:36.351Z,3.72
2018-07-15T11:18:05.944Z,3.52
2018-07-15T11:20:35.034Z,3.35
2018-07-15T11:23:03.738Z,3.50
2018-07-15T11:25:32.538Z,3.20
2018-07-15T11:28:01.262Z,3.30
2018-07-15T11:30:29.951Z,3.62
2018-07-15T11:32:58.628Z,3.33
2018-07-15T11:35:27.389Z,3.60
2018-07-15T11:37:56.084Z,3.42
2018-07-15T11:40:24.834Z,3.17
2018-07-15T11:42:53.587Z,4.20
2018-07-15T11:45:22.304Z,3.98
2018-07-15T11:47:51.243Z,3.40
2018-07-15T11:50:19.974Z,3.33
2018-07-15T11:52:48.667Z,3.40
2018-07-15T11:55:17.367Z,3.50
2018-07-15T11:57:46.410Z,3.33
2018-07-15T12:00:15.085Z,3.22
2018-07-15T12:02:43.799Z,3.45
2018-07-15T12:05:12.514Z,3.22
2018-07-15T12:07:41.249Z,3.30
2018-07-15T12:10:09.972Z,3.22
2018-07-15T12:12:38.755Z,3.37
2018-07-15T12:15:07.484Z,3.27
2018-07-15T12:17:36.165Z,3.17
2018-07-15T12:20:05.026Z,3.35
2018-07-15T12:22:33.740Z,2.80
2018-07-15T12:25:02.521Z,3.30
2018-07-15T12:27:31.225Z,3.20
2018-07-15T12:29:59.905Z,3.40
2018-07-15T12:32:28.638Z,3.22
2018-07-15T12:34:57.379Z,3.20
2018-07-15T12:37:26.081Z,3.25
2018-07-15T12:39:54.765Z,3.25
2018-07-15T12:42:23.529Z,3.40
2018-07-15T12:44:52.236Z,3.27
2018-07-15T12:47:21.016Z,2.90
2018-07-15T12:49:49.747Z,3.08
2018-07-15T12:52:18.505Z,3.17
2018-07-15T12:54:47.239Z,3.00
2018-07-15T12:57:16.069Z,3.02
2018-07-15T12:59:44.804Z,2.55
2018-07-15T13:02:13.558Z,3.42
2018-07-15T13:04:42.311Z,3.70
2018-07-15T13:07:11.002Z,3.70
2018-07-15T13:09:39.684Z,4.00
2018-07-15T13:12:09.064Z,3.58
2018-07-15T13:14:37.783Z,6.97
2018-07-15T13:17:06.520Z,4.05
2018-07-15T13:19:35.337Z,4.72
2018-07-15T13:22:04.046Z,4.12
2018-07-15T13:24:32.763Z,3.83
2018-07-15T13:27:01.432Z,3.87
2018-07-15T13:29:30.119Z,4.00
2018-07-15T13:31:58.859Z,3.40
2018-07-15T13:34:27.561Z,3.20
2018-07-15T13:36:56.366Z,3.40
2018-07-15T13:39:25.025Z,3.20
2018-07-15T13:41:53.950Z,3.40
2018-07-15T13:44:22.736Z,3.95
2018-07-15T13:46:51.501Z,4.25
2018-07-15T13:49:20.281Z,4.40
2018-07-15T13:51:49.126Z,4.22
2018-07-15T13:54:18.375Z,4.10
2018-07-15T13:56:47.070Z,4.40
2018-07-15T13:59:15.893Z,4.50
2018-07-15T14:01:44.770Z,4.20
2018-07-15T14:04:13.655Z,4.72
2018-07-15T14:06:42.390Z,4.25
2018-07-15T14:09:12.242Z,4.20
2018-07-15T14:11:41.092Z,4.30
2018-07-15T14:14:09.841Z,3.92
2018-07-15T14:16:38.730Z,4.47
2018-07-15T14:19:07.458Z,4.00
2018-07-15T14:21:36.342Z,4.12
2018-07-15T14:24:05.183Z,3.58
2018-07-15T14:26:33.924Z,3.80
2018-07-15T14:29:02.739Z,3.85
2018-07-15T14:31:31.588Z,3.45
2018-07-15T14:34:00.327Z,3.62
2018-07-15T14:36:29.075Z,3.58
2018-07-15T14:38:57.847Z,3.62
2018-07-15T14:41:26.632Z,4.10
2018-07-15T14:43:55.332Z,3.55
2018-07-15T14:46:24.017Z,3.65
2018-07-15T14:48:52.780Z,3.95
2018-07-15T14:51:22.060Z,3.87
2018-07-15T14:53:50.794Z,3.80
2018-07-15T14:56:20.187Z,3.50
2018-07-15T14:58:48.997Z,3.95
2018-07-15T15:01:17.722Z,4.00
2018-07-15T15:03:46.424Z,3.65
2018-07-15T15:06:15.419Z,3.55
2018-07-15T15:08:44.169Z,3.47
2018-07-15T15:11:13.013Z,3.90
2018-07-15T15:13:41.743Z,3.30
2018-07-15T15:17:39.644Z,3.95
2018-07-15T15:20:08.445Z,3.92
2018-07-15T15:22:37.486Z,4.37
2018-07-15T15:25:06.463Z,3.90
2018-07-15T15:27:35.157Z,4.00
2018-07-15T15:30:05.549Z,4.70
2018-07-15T15:32:34.212Z,4.30
2018-07-15T15:35:02.911Z,3.83
2018-07-15T15:37:31.755Z,3.47
2018-07-15T15:40:00.592Z,3.60
2018-07-15T15:42:29.355Z,3.45
2018-07-15T15:44:58.152Z,3.52
2018-07-15T15:47:26.888Z,3.80
2018-07-15T15:49:55.606Z,3.90
2018-07-15T15:52:24.323Z,3.25
2018-07-15T15:54:53.038Z,4.00
2018-07-15T15:57:21.877Z,4.15
